Kezdőlap
METAR-TAF:

METAR-TAF

Repülőterek :

Murray, Kentucky, Amerikai Egyesült Államok

földrajzi szélesség: 36-39-52N, földrajzi hosszúság: 088-22-22W, magasság: 176 m

Jelenlegi meteorológiai megfigyelések

A jelentés 33 perccel ezelõtt készült, 08:55 UTC
Északi szél 3 kt
Hőmérséklet 22°C
Páratartalom 100%
Légköri nyomás 1017 hPa
Látótávolság: 16.1 km
Derült ég

METAR: KCEY 210855Z AUTO 35003KT 10SM CLR 22/22 A3003 RMK A01

Idő: 04:28 (09:28 UTC)


TAF: hiányzik

Meteorológiai megfigyelések és előrejelzések több, mint 4000 repülőtéren (METAR és TAF jelentéseket).

A térképen piros és sárga pontok jelzik az elérhető meteorológiai állomásokat.

Mozgassa az egeret a pont fölött, hogy megjelenjen az állomás neve.

Azután kattintson az időjárási megfigyelések és előrejelzések megtekintéséhez.

A térkép megváltoztatása: kattintson a fekete keresztel jelölt zöld gombra ráközelítéshez, a vonallal jelölt zöld gombra távolításhoz, vagy a zöld nyilakra a szomszédos térképek eléréséhez.


METAR-TAF: